createdAt,value
2019-05-11T00:02:11.871Z,19.30
2019-05-11T00:04:40.269Z,19.20
2019-05-11T00:07:08.716Z,19.20
2019-05-11T00:09:37.065Z,19.20
2019-05-11T00:12:05.573Z,19.20
2019-05-11T00:14:34.000Z,19.20
2019-05-11T00:17:02.561Z,19.10
2019-05-11T00:19:30.942Z,19.10
2019-05-11T00:21:59.316Z,19.10
2019-05-11T00:24:29.615Z,19.10
2019-05-11T00:26:57.814Z,19.10
2019-05-11T00:29:26.412Z,19.10
2019-05-11T00:31:54.771Z,19.00
2019-05-11T00:34:23.124Z,19.00
2019-05-11T00:36:51.651Z,19.00
2019-05-11T00:39:20.108Z,19.00
2019-05-11T00:41:48.600Z,19.00
2019-05-11T00:44:17.061Z,18.90
2019-05-11T00:46:46.618Z,18.90
2019-05-11T00:49:15.026Z,19.00
2019-05-11T00:51:43.384Z,18.90
2019-05-11T00:54:11.841Z,19.00
2019-05-11T00:56:40.209Z,19.00
2019-05-11T00:59:20.889Z,19.00
2019-05-11T01:01:39.662Z,19.00
2019-05-11T01:04:08.029Z,19.00
2019-05-11T01:06:36.454Z,19.00
2019-05-11T01:09:07.376Z,18.90
2019-05-11T01:11:35.834Z,18.90
2019-05-11T01:14:04.261Z,18.90
2019-05-11T01:16:33.674Z,18.90
2019-05-11T01:19:02.006Z,18.80
2019-05-11T01:21:30.358Z,18.80
2019-05-11T01:23:58.764Z,18.80
2019-05-11T01:26:27.112Z,18.70
2019-05-11T01:28:55.519Z,18.60
2019-05-11T01:31:43.389Z,18.60
2019-05-11T01:34:11.818Z,18.60
2019-05-11T01:36:40.168Z,18.60
2019-05-11T01:39:08.558Z,18.60
2019-05-11T01:41:37.029Z,18.50
2019-05-11T01:44:05.366Z,18.50
2019-05-11T01:46:33.827Z,18.40
2019-05-11T01:49:02.189Z,18.50
2019-05-11T01:51:30.545Z,18.50
2019-05-11T01:53:58.957Z,18.50
2019-05-11T01:56:27.330Z,18.50
2019-05-11T01:58:55.802Z,18.50
2019-05-11T02:01:24.191Z,18.40
2019-05-11T02:03:52.545Z,18.40
2019-05-11T02:06:21.002Z,18.30
2019-05-11T02:08:49.424Z,18.20
2019-05-11T02:11:17.801Z,18.10
2019-05-11T02:13:46.175Z,18.00
2019-05-11T02:16:14.589Z,17.80
2019-05-11T02:18:42.946Z,17.70
2019-05-11T02:21:11.438Z,17.70
2019-05-11T02:23:39.858Z,17.70
2019-05-11T02:26:08.322Z,17.60
2019-05-11T02:28:36.758Z,17.60
2019-05-11T02:31:05.102Z,17.60
2019-05-11T02:33:33.594Z,17.50
2019-05-11T02:36:02.044Z,17.50
2019-05-11T02:38:30.409Z,17.40
2019-05-11T02:40:58.753Z,17.40
2019-05-11T02:43:27.162Z,17.30
2019-05-11T02:45:55.639Z,17.30
2019-05-11T02:48:24.038Z,17.30
2019-05-11T02:50:52.510Z,17.40
2019-05-11T02:53:20.879Z,17.40
2019-05-11T02:55:49.289Z,17.40
2019-05-11T02:58:17.715Z,17.30
2019-05-11T03:00:46.129Z,17.30
2019-05-11T03:03:14.528Z,17.20
2019-05-11T03:05:42.936Z,17.20
2019-05-11T03:08:11.297Z,17.20
2019-05-11T03:10:39.716Z,17.00
2019-05-11T03:13:08.190Z,17.00
2019-05-11T03:15:36.599Z,17.00
2019-05-11T03:18:04.993Z,17.00
2019-05-11T03:20:33.327Z,17.00
2019-05-11T03:23:01.764Z,17.00
2019-05-11T03:25:30.149Z,17.10
2019-05-11T03:27:58.514Z,17.10
2019-05-11T03:30:26.922Z,17.00
2019-05-11T03:32:55.391Z,17.00
2019-05-11T03:35:23.832Z,16.80
2019-05-11T03:37:52.157Z,16.90
2019-05-11T03:40:20.547Z,16.80
2019-05-11T03:42:48.951Z,16.80
2019-05-11T03:45:17.385Z,16.80
2019-05-11T03:47:45.841Z,16.90
2019-05-11T03:50:14.324Z,16.90
2019-05-11T03:52:42.689Z,17.00
2019-05-11T03:55:11.122Z,17.00
2019-05-11T03:57:39.459Z,17.10
2019-05-11T04:00:08.944Z,17.10
2019-05-11T04:02:37.421Z,17.20
2019-05-11T04:05:06.272Z,17.20
2019-05-11T04:10:25.371Z,17.20
2019-05-11T04:12:53.510Z,17.20
2019-05-11T04:15:21.922Z,17.20
2019-05-11T04:18:09.745Z,17.30
2019-05-11T04:20:38.155Z,17.20
2019-05-11T04:23:06.508Z,17.20
2019-05-11T04:25:34.967Z,17.30
2019-05-11T04:28:03.366Z,17.40
2019-05-11T04:30:31.783Z,17.40
2019-05-11T04:33:00.186Z,17.40
2019-05-11T04:35:28.740Z,17.50
2019-05-11T04:37:57.105Z,17.40
2019-05-11T04:40:25.473Z,17.40
2019-05-11T04:42:56.091Z,17.50
2019-05-11T04:45:24.035Z,17.50
2019-05-11T04:47:52.406Z,17.60
2019-05-11T04:50:20.809Z,17.50
2019-05-11T04:52:49.203Z,17.40
2019-05-11T04:55:17.605Z,17.40
2019-05-11T04:58:05.588Z,17.50
2019-05-11T05:00:33.961Z,17.60
2019-05-11T05:03:02.340Z,17.50
2019-05-11T05:05:30.767Z,17.50
2019-05-11T05:08:09.204Z,17.40
2019-05-11T05:10:29.225Z,17.40
2019-05-11T05:13:17.093Z,17.50
2019-05-11T05:15:45.438Z,17.50
2019-05-11T05:18:13.813Z,17.60
2019-05-11T05:20:43.929Z,17.70
2019-05-11T05:23:12.270Z,17.70
2019-05-11T05:25:40.649Z,17.70
2019-05-11T05:28:09.098Z,17.60
2019-05-11T05:30:37.501Z,17.70
2019-05-11T05:33:05.885Z,17.80
2019-05-11T05:35:35.313Z,17.90
2019-05-11T05:38:03.661Z,17.90
2019-05-11T05:40:32.026Z,17.90
2019-05-11T05:43:00.547Z,17.90
2019-05-11T05:45:28.982Z,18.00
2019-05-11T05:47:57.421Z,18.10
2019-05-11T05:50:25.889Z,18.10
2019-05-11T05:52:54.385Z,18.30
2019-05-11T05:55:22.730Z,18.60
2019-05-11T05:57:51.196Z,18.70
2019-05-11T06:00:19.634Z,18.70
2019-05-11T06:02:48.013Z,18.70
2019-05-11T06:05:16.461Z,18.80
2019-05-11T06:07:44.944Z,18.80
2019-05-11T06:10:13.629Z,18.90
2019-05-11T06:12:42.032Z,18.90
2019-05-11T06:15:10.599Z,18.90
2019-05-11T06:17:38.966Z,18.80
2019-05-11T06:20:08.072Z,18.80
2019-05-11T06:22:36.985Z,18.80
2019-05-11T06:25:06.042Z,18.90
2019-05-11T06:27:34.518Z,18.90
2019-05-11T06:30:03.268Z,19.10
2019-05-11T06:32:31.743Z,19.00
2019-05-11T06:35:00.255Z,19.00
2019-05-11T06:37:28.654Z,19.00
2019-05-11T06:39:57.086Z,19.00
2019-05-11T06:42:25.538Z,19.10
2019-05-11T06:44:53.938Z,19.30
2019-05-11T06:47:22.373Z,19.40
2019-05-11T06:49:51.825Z,19.60
2019-05-11T06:52:20.230Z,19.70
2019-05-11T06:54:48.625Z,19.70
2019-05-11T06:57:17.090Z,19.80
2019-05-11T06:59:45.457Z,19.80
2019-05-11T07:02:13.828Z,20.00
2019-05-11T07:04:42.309Z,20.00
2019-05-11T07:07:10.680Z,20.10
2019-05-11T07:09:39.196Z,20.20
2019-05-11T07:12:07.752Z,20.10
2019-05-11T07:14:36.177Z,20.10
2019-05-11T07:17:04.517Z,20.10
2019-05-11T07:19:32.927Z,20.10
2019-05-11T07:22:01.398Z,20.10
2019-05-11T07:24:29.772Z,20.10
2019-05-11T07:26:58.230Z,20.10
2019-05-11T07:29:26.608Z,20.10
2019-05-11T07:31:57.884Z,20.10
2019-05-11T07:34:27.667Z,20.20
2019-05-11T07:36:57.554Z,20.20
2019-05-11T07:39:27.792Z,20.20
2019-05-11T07:41:55.329Z,20.30
2019-05-11T07:44:35.892Z,20.30
2019-05-11T07:46:53.750Z,20.30
2019-05-11T07:49:23.566Z,20.40
2019-05-11T07:51:52.233Z,20.40
2019-05-11T07:54:21.083Z,20.50
2019-05-11T07:56:49.502Z,20.60
2019-05-11T07:59:18.432Z,20.60
2019-05-11T08:01:47.934Z,20.70
2019-05-11T08:04:18.374Z,20.70
2019-05-11T08:06:47.929Z,20.80
2019-05-11T08:09:18.596Z,20.80
2019-05-11T08:11:47.798Z,20.70
2019-05-11T08:14:18.329Z,20.80
2019-05-11T08:16:48.063Z,20.80
2019-05-11T08:19:18.471Z,20.80
2019-05-11T08:21:48.082Z,20.90
2019-05-11T08:24:18.034Z,20.90
2019-05-11T08:26:48.035Z,21.00
2019-05-11T08:29:18.562Z,21.00
2019-05-11T08:31:48.612Z,20.90
2019-05-11T08:34:18.014Z,20.90
2019-05-11T08:36:48.047Z,20.80
2019-05-11T08:39:18.191Z,20.90
2019-05-11T08:41:48.844Z,21.10
2019-05-11T08:44:18.190Z,21.30
2019-05-11T08:46:47.820Z,21.40
2019-05-11T08:49:18.812Z,21.50
2019-05-11T08:51:47.777Z,21.50
2019-05-11T08:54:18.295Z,21.40
2019-05-11T08:56:48.593Z,21.30
2019-05-11T08:59:18.684Z,21.40
2019-05-11T09:01:48.397Z,21.40
2019-05-11T09:04:18.232Z,21.50
2019-05-11T09:06:47.938Z,21.50
2019-05-11T09:09:18.106Z,21.60
2019-05-11T09:11:48.152Z,21.60
2019-05-11T09:14:18.676Z,21.60
2019-05-11T09:16:48.811Z,21.60
2019-05-11T09:19:17.937Z,21.80
2019-05-11T09:21:48.227Z,21.80
2019-05-11T09:24:18.747Z,21.70
2019-05-11T09:26:47.905Z,21.60
2019-05-11T09:29:17.967Z,21.50
2019-05-11T09:31:48.541Z,21.40
2019-05-11T09:34:18.076Z,21.30
2019-05-11T09:36:47.968Z,21.40
2019-05-11T09:39:17.701Z,21.50
2019-05-11T09:41:48.658Z,21.70
2019-05-11T09:44:18.262Z,21.80
2019-05-11T09:46:47.819Z,21.80
2019-05-11T09:49:18.462Z,21.90
2019-05-11T09:51:48.263Z,22.10
2019-05-11T09:54:18.293Z,22.20
2019-05-11T09:56:48.697Z,22.30
2019-05-11T09:59:17.840Z,22.30
2019-05-11T10:01:48.370Z,22.40
2019-05-11T10:04:18.060Z,22.50
2019-05-11T10:06:48.110Z,22.70
2019-05-11T10:09:18.690Z,22.70
2019-05-11T10:11:48.014Z,22.70
2019-05-11T10:14:18.662Z,22.80
2019-05-11T10:16:48.976Z,22.90
2019-05-11T10:19:17.867Z,23.00
2019-05-11T10:21:48.520Z,23.10
2019-05-11T10:24:17.803Z,23.10
2019-05-11T10:26:48.508Z,23.10
2019-05-11T10:29:18.312Z,23.00
2019-05-11T10:31:48.067Z,23.00
2019-05-11T10:34:17.995Z,22.90
2019-05-11T10:36:48.670Z,23.00
2019-05-11T10:39:18.648Z,23.10
2019-05-11T10:41:48.010Z,23.20
2019-05-11T10:44:18.577Z,23.20
2019-05-11T10:46:48.356Z,23.10
2019-05-11T10:49:18.537Z,23.20
2019-05-11T10:51:48.629Z,23.30
2019-05-11T10:54:18.754Z,23.40
2019-05-11T10:56:48.174Z,23.30
2019-05-11T10:59:18.737Z,23.30
2019-05-11T11:01:48.400Z,23.30
2019-05-11T11:04:18.429Z,23.50
2019-05-11T11:06:48.510Z,23.60
2019-05-11T11:09:17.858Z,23.60
2019-05-11T11:11:58.524Z,23.60
2019-05-11T11:14:28.649Z,23.60
2019-05-11T11:16:58.435Z,23.70
2019-05-11T11:19:29.020Z,23.80
2019-05-11T11:22:13.800Z,23.80
2019-05-11T11:24:28.685Z,23.80
2019-05-11T11:26:57.719Z,23.80
2019-05-11T11:29:28.553Z,23.90
2019-05-11T11:31:58.527Z,24.00
2019-05-11T11:34:28.023Z,24.20
2019-05-11T11:36:58.053Z,24.20
2019-05-11T11:39:28.343Z,24.10
2019-05-11T11:41:58.654Z,24.00
2019-05-11T11:44:28.625Z,23.80
2019-05-11T11:46:59.010Z,23.70
2019-05-11T11:49:28.240Z,23.60
2019-05-11T11:51:57.760Z,23.60
2019-05-11T11:54:28.460Z,23.60
2019-05-11T11:56:58.986Z,23.70
2019-05-11T11:59:28.742Z,23.80
2019-05-11T12:01:58.135Z,23.90
2019-05-11T12:04:28.376Z,24.10
2019-05-11T12:06:58.154Z,24.20
2019-05-11T12:09:28.613Z,24.40
2019-05-11T12:11:58.117Z,24.60
2019-05-11T12:14:28.210Z,24.80
2019-05-11T12:17:07.423Z,24.80
2019-05-11T12:19:27.911Z,24.70
2019-05-11T12:21:58.079Z,24.70
2019-05-11T12:24:28.631Z,24.60
2019-05-11T12:26:58.762Z,24.60
2019-05-11T12:29:28.138Z,24.60
2019-05-11T12:31:58.878Z,24.60
2019-05-11T12:34:28.307Z,24.60
2019-05-11T12:36:58.093Z,24.50
2019-05-11T12:39:28.200Z,24.60
2019-05-11T12:41:58.197Z,24.60
2019-05-11T12:44:28.422Z,24.70
2019-05-11T12:46:58.345Z,24.80
2019-05-11T12:49:28.977Z,24.90
2019-05-11T12:51:58.061Z,24.90
2019-05-11T12:54:28.061Z,25.00
2019-05-11T12:56:57.977Z,25.10
2019-05-11T12:59:27.827Z,25.00
2019-05-11T13:02:18.255Z,25.00
2019-05-11T13:04:47.787Z,25.00
2019-05-11T13:07:17.447Z,25.10
2019-05-11T13:09:48.272Z,25.10
2019-05-11T13:12:18.491Z,25.10
2019-05-11T13:14:48.639Z,25.20
2019-05-11T13:17:18.734Z,25.30
2019-05-11T13:19:48.048Z,25.30
2019-05-11T13:22:18.318Z,25.30
2019-05-11T13:24:48.154Z,25.20
2019-05-11T13:27:17.914Z,25.00
2019-05-11T13:29:48.558Z,24.90
2019-05-11T13:32:18.518Z,24.90
2019-05-11T13:34:48.058Z,24.80
2019-05-11T13:37:18.639Z,24.80
2019-05-11T13:39:48.582Z,24.80
2019-05-11T13:42:16.560Z,24.70
2019-05-11T13:44:45.008Z,24.60
2019-05-11T13:47:13.678Z,24.60
2019-05-11T13:49:42.198Z,24.70
2019-05-11T13:52:10.561Z,24.80
2019-05-11T13:54:39.116Z,24.80
2019-05-11T13:57:08.118Z,24.90
2019-05-11T13:59:38.431Z,24.90
2019-05-11T14:02:10.669Z,25.00
2019-05-11T14:04:38.653Z,25.20
2019-05-11T14:07:08.125Z,25.30
2019-05-11T14:12:07.757Z,25.70
2019-05-11T14:14:37.716Z,25.90
2019-05-11T14:17:08.278Z,26.00
2019-05-11T14:19:38.524Z,26.00
2019-05-11T14:22:08.593Z,26.10
2019-05-11T14:24:37.628Z,25.80
2019-05-11T14:27:08.337Z,25.80
2019-05-11T14:29:38.458Z,25.60
2019-05-11T14:32:08.581Z,25.50
2019-05-11T14:34:38.707Z,25.40
2019-05-11T14:37:08.836Z,25.40
2019-05-11T14:39:38.345Z,25.30
2019-05-11T14:42:07.714Z,25.30
2019-05-11T14:44:37.686Z,25.30
2019-05-11T14:47:08.371Z,25.30
2019-05-11T14:49:37.850Z,25.30
2019-05-11T14:52:08.320Z,25.60
2019-05-11T14:54:38.205Z,26.20
2019-05-11T14:57:08.140Z,26.60
2019-05-11T14:59:37.742Z,27.30
2019-05-11T15:02:12.015Z,28.40
2019-05-11T15:04:40.830Z,28.90
2019-05-11T15:07:09.275Z,29.40
2019-05-11T15:09:37.725Z,29.50
2019-05-11T15:12:06.076Z,29.40
2019-05-11T15:14:34.482Z,29.40
2019-05-11T15:17:03.053Z,30.00
2019-05-11T15:19:31.385Z,31.00
2019-05-11T15:21:59.664Z,32.20
2019-05-11T15:24:28.832Z,33.10
2019-05-11T15:26:57.640Z,33.80
2019-05-11T15:29:26.156Z,34.10
2019-05-11T15:31:54.577Z,33.50
2019-05-11T15:34:22.967Z,32.20
2019-05-11T15:36:51.435Z,31.50
2019-05-11T15:39:19.795Z,31.80
2019-05-11T15:41:48.213Z,31.60
2019-05-11T15:44:18.340Z,30.90
2019-05-11T15:46:47.977Z,30.20
2019-05-11T15:49:18.028Z,29.70
2019-05-11T15:51:48.865Z,29.10
2019-05-11T15:54:18.516Z,28.60
2019-05-11T15:56:47.036Z,28.20
2019-05-11T15:59:15.416Z,27.80
2019-05-11T16:01:43.756Z,27.50
2019-05-11T16:04:12.163Z,27.20
2019-05-11T16:06:40.545Z,27.00
2019-05-11T16:09:09.922Z,26.80
2019-05-11T16:11:38.943Z,26.60
2019-05-11T16:14:08.556Z,26.50
2019-05-11T16:16:38.968Z,26.50
2019-05-11T16:19:13.973Z,26.30
2019-05-11T16:21:38.398Z,26.20
2019-05-11T16:24:08.105Z,26.00
2019-05-11T16:26:36.726Z,25.90
2019-05-11T16:29:05.084Z,25.70
2019-05-11T16:31:33.617Z,25.50
2019-05-11T16:34:02.755Z,25.30
2019-05-11T16:36:31.332Z,25.10
2019-05-11T16:38:59.760Z,24.90
2019-05-11T16:41:29.174Z,23.70
2019-05-11T16:43:58.579Z,22.20
2019-05-11T16:46:28.365Z,20.80
2019-05-11T16:48:57.926Z,19.60
2019-05-11T16:51:28.434Z,18.60
2019-05-11T16:53:58.616Z,17.80
2019-05-11T16:56:26.641Z,17.00
2019-05-11T16:58:55.126Z,16.50
2019-05-11T17:01:23.529Z,16.00
2019-05-11T17:03:51.918Z,15.60
2019-05-11T17:06:20.322Z,15.40
2019-05-11T17:08:48.876Z,15.30
2019-05-11T17:11:18.626Z,15.20
2019-05-11T17:13:48.336Z,15.10
2019-05-11T17:16:17.927Z,15.00
2019-05-11T17:18:48.317Z,15.10
2019-05-11T17:21:18.322Z,15.00
2019-05-11T17:23:48.887Z,15.10
2019-05-11T17:26:19.045Z,15.00
2019-05-11T17:28:48.810Z,15.10
2019-05-11T17:31:18.861Z,15.00
2019-05-11T17:33:47.659Z,15.00
2019-05-11T17:36:18.519Z,14.90
2019-05-11T17:38:47.877Z,14.90
2019-05-11T17:41:16.456Z,14.90
2019-05-11T17:43:44.993Z,15.00
2019-05-11T17:46:13.391Z,15.00
2019-05-11T17:48:41.764Z,15.10
2019-05-11T17:51:20.424Z,15.20
2019-05-11T17:53:40.186Z,15.10
2019-05-11T17:56:08.617Z,15.00
2019-05-11T17:58:37.854Z,15.00
2019-05-11T18:01:09.199Z,14.90
2019-05-11T18:03:38.410Z,14.90
2019-05-11T18:06:08.482Z,14.90
2019-05-11T18:08:37.176Z,15.00
2019-05-11T18:11:08.165Z,15.00
2019-05-11T18:13:35.634Z,15.00
2019-05-11T18:16:03.993Z,15.10
2019-05-11T18:18:33.590Z,15.10
2019-05-11T18:21:01.954Z,15.10
2019-05-11T18:23:31.356Z,15.00
2019-05-11T18:25:59.758Z,15.00
2019-05-11T18:28:29.063Z,15.00
2019-05-11T18:30:58.262Z,15.00
2019-05-11T18:33:27.741Z,15.00
2019-05-11T18:35:58.301Z,14.90
2019-05-11T18:38:27.678Z,14.80
2019-05-11T18:40:58.006Z,14.80
2019-05-11T18:43:28.050Z,14.90
2019-05-11T18:45:58.156Z,14.80
2019-05-11T18:48:29.027Z,14.90
2019-05-11T18:50:58.957Z,14.80
2019-05-11T18:53:28.910Z,14.70
2019-05-11T18:55:58.967Z,14.70
2019-05-11T18:58:28.549Z,14.70
2019-05-11T19:00:57.874Z,14.70
2019-05-11T19:03:28.054Z,14.70
2019-05-11T19:05:57.720Z,14.70
2019-05-11T19:08:27.915Z,14.60
2019-05-11T19:10:57.950Z,14.60
2019-05-11T19:13:28.163Z,14.60
2019-05-11T19:15:58.403Z,14.60
2019-05-11T19:18:28.231Z,14.60
2019-05-11T19:20:58.589Z,14.60
2019-05-11T19:23:28.674Z,14.70
2019-05-11T19:25:58.055Z,14.70
2019-05-11T19:28:28.068Z,14.70
2019-05-11T19:30:59.150Z,14.80
2019-05-11T19:33:28.309Z,14.80
2019-05-11T19:35:58.679Z,14.70
2019-05-11T19:38:28.172Z,14.70
2019-05-11T19:40:58.958Z,14.70
2019-05-11T19:43:28.162Z,14.70
2019-05-11T19:45:58.119Z,14.70
2019-05-11T19:48:28.028Z,14.70
2019-05-11T19:51:06.688Z,14.70
2019-05-11T19:53:28.529Z,14.60
2019-05-11T19:55:58.610Z,14.60
2019-05-11T19:58:28.975Z,14.60
2019-05-11T20:00:59.733Z,14.60
2019-05-11T20:03:28.837Z,14.70
2019-05-11T20:05:58.155Z,14.70
2019-05-11T20:08:29.101Z,14.60
2019-05-11T20:10:58.012Z,14.60
2019-05-11T20:13:28.415Z,14.50
2019-05-11T20:16:01.086Z,14.60
2019-05-11T20:18:30.147Z,14.60
2019-05-11T20:20:59.243Z,14.50
2019-05-11T20:23:29.744Z,14.50
2019-05-11T20:25:59.190Z,14.50
2019-05-11T20:28:28.441Z,14.60
2019-05-11T20:30:58.731Z,14.50
2019-05-11T20:33:28.043Z,14.50
2019-05-11T20:35:58.146Z,14.50
2019-05-11T20:38:27.917Z,14.50
2019-05-11T20:40:57.743Z,14.60
2019-05-11T20:43:27.947Z,14.60
2019-05-11T20:45:57.017Z,14.60
2019-05-11T20:48:27.551Z,14.60
2019-05-11T20:50:57.745Z,14.60
2019-05-11T20:53:28.446Z,14.70
2019-05-11T20:55:58.206Z,14.70
2019-05-11T20:58:28.737Z,14.80
2019-05-11T21:00:56.688Z,14.80
2019-05-11T21:03:27.557Z,14.80
2019-05-11T21:05:55.353Z,14.90
2019-05-11T21:08:23.984Z,14.90
2019-05-11T21:10:52.508Z,15.00
2019-05-11T21:13:21.137Z,15.00
2019-05-11T21:15:49.690Z,15.00
2019-05-11T21:18:18.588Z,15.00
2019-05-11T21:20:48.354Z,15.00
2019-05-11T21:23:18.600Z,15.00
2019-05-11T21:25:47.633Z,14.90
2019-05-11T21:28:16.324Z,14.90
2019-05-11T21:30:44.912Z,15.00
2019-05-11T21:33:13.559Z,15.00
2019-05-11T21:35:42.087Z,15.00
2019-05-11T21:38:10.645Z,15.10
2019-05-11T21:40:39.187Z,15.10
2019-05-11T21:43:08.677Z,15.10
2019-05-11T21:45:40.330Z,15.20
2019-05-11T21:48:07.752Z,15.20
2019-05-11T21:50:36.622Z,15.20
2019-05-11T21:53:05.282Z,15.20
2019-05-11T21:55:33.753Z,15.10
2019-05-11T21:58:02.231Z,15.10
2019-05-11T22:00:30.956Z,15.20
2019-05-11T22:02:59.488Z,15.10
2019-05-11T22:05:28.933Z,15.10
2019-05-11T22:07:58.245Z,15.20
2019-05-11T22:10:28.294Z,15.20
2019-05-11T22:12:57.006Z,15.20
2019-05-11T22:15:25.331Z,15.20
2019-05-11T22:17:53.786Z,15.20
2019-05-11T22:20:22.133Z,15.20
2019-05-11T22:22:50.639Z,15.40
2019-05-11T22:25:19.089Z,15.40
2019-05-11T22:27:48.789Z,15.40
2019-05-11T22:30:18.578Z,15.40
2019-05-11T22:33:08.590Z,15.40
2019-05-11T22:35:37.692Z,15.40
2019-05-11T22:38:08.180Z,15.40
2019-05-11T22:40:38.345Z,15.40
2019-05-11T22:43:09.046Z,15.50
2019-05-11T22:45:38.254Z,15.40
2019-05-11T22:48:07.874Z,15.40
2019-05-11T22:50:38.163Z,15.40
2019-05-11T22:53:08.672Z,15.40
2019-05-11T22:55:38.154Z,15.40
2019-05-11T22:58:08.432Z,15.40
2019-05-11T23:00:43.969Z,15.40
2019-05-11T23:03:12.431Z,15.50
2019-05-11T23:05:41.351Z,15.50
2019-05-11T23:08:09.688Z,15.50
2019-05-11T23:10:38.720Z,15.50
2019-05-11T23:13:08.241Z,15.50
2019-05-11T23:15:40.015Z,15.50
2019-05-11T23:18:08.604Z,15.50
2019-05-11T23:20:38.693Z,15.50
2019-05-11T23:23:08.715Z,15.50
2019-05-11T23:25:37.412Z,15.50
2019-05-11T23:28:05.806Z,15.60
2019-05-11T23:30:34.194Z,15.60
2019-05-11T23:33:02.588Z,15.60
2019-05-11T23:35:31.102Z,15.50
2019-05-11T23:38:00.491Z,15.60
2019-05-11T23:40:28.915Z,15.60
2019-05-11T23:42:57.870Z,15.70
2019-05-11T23:45:27.960Z,15.60
2019-05-11T23:47:58.650Z,15.70
2019-05-11T23:50:28.112Z,15.60
2019-05-11T23:53:06.001Z,15.60
2019-05-11T23:55:29.002Z,15.60
2019-05-11T23:57:57.704Z,15.60
